sensor_id;sensor_type;location;lat;lon;timestamp;temperature;humidity
43995;DHT22;51687;52.160;5.298;2023-03-01T00:02:06;10.40;37.00
43995;DHT22;51687;52.160;5.298;2023-03-01T00:04:33;10.30;37.10
43995;DHT22;51687;52.160;5.298;2023-03-01T00:07:02;10.30;37.20
43995;DHT22;51687;52.160;5.298;2023-03-01T00:09:29;10.20;37.20
43995;DHT22;51687;52.160;5.298;2023-03-01T00:11:55;10.20;37.50
43995;DHT22;51687;52.160;5.298;2023-03-01T00:14:22;10.20;37.50
43995;DHT22;51687;52.160;5.298;2023-03-01T00:16:50;10.10;37.50
43995;DHT22;51687;52.160;5.298;2023-03-01T00:19:19;10.10;37.60
43995;DHT22;51687;52.160;5.298;2023-03-01T00:21:46;10.00;37.60
43995;DHT22;51687;52.160;5.298;2023-03-01T00:24:13;10.00;37.80
43995;DHT22;51687;52.160;5.298;2023-03-01T00:26:40;10.00;37.80
43995;DHT22;51687;52.160;5.298;2023-03-01T00:29:07;10.00;37.80
43995;DHT22;51687;52.160;5.298;2023-03-01T00:31:34;9.90;37.70
43995;DHT22;51687;52.160;5.298;2023-03-01T00:34:04;9.90;37.80
43995;DHT22;51687;52.160;5.298;2023-03-01T03:21:37;9.90;37.80
43995;DHT22;51687;52.160;5.298;2023-03-01T03:24:04;9.70;36.00
43995;DHT22;51687;52.160;5.298;2023-03-01T03:36:23;9.50;36.60
43995;DHT22;51687;52.160;5.298;2023-03-01T03:38:51;8.80;37.90
43995;DHT22;51687;52.160;5.298;2023-03-01T03:41:17;8.70;38.10
43995;DHT22;51687;52.160;5.298;2023-03-01T03:43:45;8.60;38.30
43995;DHT22;51687;52.160;5.298;2023-03-01T03:46:12;8.50;38.40
43995;DHT22;51687;52.160;5.298;2023-03-01T03:48:41;8.40;38.50
43995;DHT22;51687;52.160;5.298;2023-03-01T03:51:13;8.30;38.80
43995;DHT22;51687;52.160;5.298;2023-03-01T03:53:41;8.20;39.10
43995;DHT22;51687;52.160;5.298;2023-03-01T03:56:08;8.10;39.10
43995;DHT22;51687;52.160;5.298;2023-03-01T03:58:35;8.10;39.20
43995;DHT22;51687;52.160;5.298;2023-03-01T04:01:02;8.00;39.50
43995;DHT22;51687;52.160;5.298;2023-03-01T04:03:30;7.90;39.60
43995;DHT22;51687;52.160;5.298;2023-03-01T04:05:59;7.80;39.70
43995;DHT22;51687;52.160;5.298;2023-03-01T04:08:27;7.70;39.30
43995;DHT22;51687;52.160;5.298;2023-03-01T04:10:59;7.60;40.00
43995;DHT22;51687;52.160;5.298;2023-03-01T04:13:27;7.50;40.30
43995;DHT22;51687;52.160;5.298;2023-03-01T04:15:54;7.50;40.40
43995;DHT22;51687;52.160;5.298;2023-03-01T04:18:23;7.50;40.40
43995;DHT22;51687;52.160;5.298;2023-03-01T04:20:50;7.50;40.60
43995;DHT22;51687;52.160;5.298;2023-03-01T04:28:25;7.30;40.30
43995;DHT22;51687;52.160;5.298;2023-03-01T04:30:53;7.20;40.50
43995;DHT22;51687;52.160;5.298;2023-03-01T04:33:20;7.20;41.30
43995;DHT22;51687;52.160;5.298;2023-03-01T04:35:47;7.10;41.40
43995;DHT22;51687;52.160;5.298;2023-03-01T04:38:17;7.10;41.60
43995;DHT22;51687;52.160;5.298;2023-03-01T04:40:44;7.10;41.60
43995;DHT22;51687;52.160;5.298;2023-03-01T04:43:11;7.00;41.60
43995;DHT22;51687;52.160;5.298;2023-03-01T04:45:41;7.00;41.70
43995;DHT22;51687;52.160;5.298;2023-03-01T04:48:07;7.00;41.90
43995;DHT22;51687;52.160;5.298;2023-03-01T04:50:35;6.90;42.00
43995;DHT22;51687;52.160;5.298;2023-03-01T04:53:02;6.90;42.10
43995;DHT22;51687;52.160;5.298;2023-03-01T04:55:29;6.90;42.20
43995;DHT22;51687;52.160;5.298;2023-03-01T04:57:56;6.80;42.40
43995;DHT22;51687;52.160;5.298;2023-03-01T05:00:23;6.80;42.50
43995;DHT22;51687;52.160;5.298;2023-03-01T05:02:54;6.80;42.50
43995;DHT22;51687;52.160;5.298;2023-03-01T05:05:32;6.70;42.40
43995;DHT22;51687;52.160;5.298;2023-03-01T05:10:29;6.60;42.00
43995;DHT22;51687;52.160;5.298;2023-03-01T05:12:57;6.60;42.70
43995;DHT22;51687;52.160;5.298;2023-03-01T05:15:26;6.60;42.80
43995;DHT22;51687;52.160;5.298;2023-03-01T05:17:55;6.60;42.80
43995;DHT22;51687;52.160;5.298;2023-03-01T05:20:22;6.60;43.00
43995;DHT22;51687;52.160;5.298;2023-03-01T05:22:54;6.60;42.80
43995;DHT22;51687;52.160;5.298;2023-03-01T05:25:21;6.50;42.70
43995;DHT22;51687;52.160;5.298;2023-03-01T05:27:48;6.50;42.80
43995;DHT22;51687;52.160;5.298;2023-03-01T05:30:15;6.40;43.10
43995;DHT22;51687;52.160;5.298;2023-03-01T05:32:47;6.40;43.20
43995;DHT22;51687;52.160;5.298;2023-03-01T05:35:16;6.40;43.30
43995;DHT22;51687;52.160;5.298;2023-03-01T05:37:44;6.40;43.40
43995;DHT22;51687;52.160;5.298;2023-03-01T05:40:14;6.40;43.20
43995;DHT22;51687;52.160;5.298;2023-03-01T05:42:46;6.30;43.30
43995;DHT22;51687;52.160;5.298;2023-03-01T05:45:14;6.30;43.50
43995;DHT22;51687;52.160;5.298;2023-03-01T05:47:43;6.30;43.50
43995;DHT22;51687;52.160;5.298;2023-03-01T05:50:16;6.20;43.50
43995;DHT22;51687;52.160;5.298;2023-03-01T05:55:18;6.10;43.10
43995;DHT22;51687;52.160;5.298;2023-03-01T05:57:46;6.10;43.60
43995;DHT22;51687;52.160;5.298;2023-03-01T06:00:15;6.10;43.60
43995;DHT22;51687;52.160;5.298;2023-03-01T06:02:42;6.10;43.60
43995;DHT22;51687;52.160;5.298;2023-03-01T06:05:11;6.10;43.60
43995;DHT22;51687;52.160;5.298;2023-03-01T06:07:38;6.10;43.70
43995;DHT22;51687;52.160;5.298;2023-03-01T06:10:06;6.00;43.70
43995;DHT22;51687;52.160;5.298;2023-03-01T06:15:01;6.00;43.30
43995;DHT22;51687;52.160;5.298;2023-03-01T06:17:30;6.00;44.00
43995;DHT22;51687;52.160;5.298;2023-03-01T06:19:57;6.00;43.80
43995;DHT22;51687;52.160;5.298;2023-03-01T06:22:25;5.90;43.80
43995;DHT22;51687;52.160;5.298;2023-03-01T06:24:52;5.90;43.80
43995;DHT22;51687;52.160;5.298;2023-03-01T06:27:18;5.90;43.90
43995;DHT22;51687;52.160;5.298;2023-03-01T06:29:45;5.90;44.10
43995;DHT22;51687;52.160;5.298;2023-03-01T06:32:12;5.80;44.10
43995;DHT22;51687;52.160;5.298;2023-03-01T06:34:39;5.80;44.10
43995;DHT22;51687;52.160;5.298;2023-03-01T06:37:06;5.80;44.10
43995;DHT22;51687;52.160;5.298;2023-03-01T06:39:33;5.70;44.10
43995;DHT22;51687;52.160;5.298;2023-03-01T06:42:00;5.70;44.70
43995;DHT22;51687;52.160;5.298;2023-03-01T06:44:27;5.70;44.30
43995;DHT22;51687;52.160;5.298;2023-03-01T06:46:54;5.70;44.60
43995;DHT22;51687;52.160;5.298;2023-03-01T06:49:21;5.60;44.60
43995;DHT22;51687;52.160;5.298;2023-03-01T06:51:48;5.60;45.00
43995;DHT22;51687;52.160;5.298;2023-03-01T06:54:15;5.60;44.80
43995;DHT22;51687;52.160;5.298;2023-03-01T06:56:41;5.60;44.90
43995;DHT22;51687;52.160;5.298;2023-03-01T06:59:08;5.70;45.00
43995;DHT22;51687;52.160;5.298;2023-03-01T07:01:35;5.60;45.00
43995;DHT22;51687;52.160;5.298;2023-03-01T07:04:02;5.60;45.00
43995;DHT22;51687;52.160;5.298;2023-03-01T07:06:29;5.60;45.00
43995;DHT22;51687;52.160;5.298;2023-03-01T07:08:57;5.60;45.00
43995;DHT22;51687;52.160;5.298;2023-03-01T07:11:24;5.70;45.20
43995;DHT22;51687;52.160;5.298;2023-03-01T07:13:50;5.60;45.20
43995;DHT22;51687;52.160;5.298;2023-03-01T07:16:18;5.70;45.40
43995;DHT22;51687;52.160;5.298;2023-03-01T07:18:45;5.70;45.90
43995;DHT22;51687;52.160;5.298;2023-03-01T07:21:13;5.60;46.10
43995;DHT22;51687;52.160;5.298;2023-03-01T07:23:41;5.70;50.40
43995;DHT22;51687;52.160;5.298;2023-03-01T07:26:07;5.50;47.00
43995;DHT22;51687;52.160;5.298;2023-03-01T07:28:34;5.50;69.30
43995;DHT22;51687;52.160;5.298;2023-03-01T07:31:05;5.40;58.90
43995;DHT22;51687;52.160;5.298;2023-03-01T07:33:32;5.50;62.90
43995;DHT22;51687;52.160;5.298;2023-03-01T07:36:01;5.50;52.00
43995;DHT22;51687;52.160;5.298;2023-03-01T07:38:28;5.60;50.90
43995;DHT22;51687;52.160;5.298;2023-03-01T07:41:00;5.60;50.90
43995;DHT22;51687;52.160;5.298;2023-03-01T07:43:31;5.50;47.90
43995;DHT22;51687;52.160;5.298;2023-03-01T07:46:01;5.60;48.00
43995;DHT22;51687;52.160;5.298;2023-03-01T07:48:29;5.70;47.90
43995;DHT22;51687;52.160;5.298;2023-03-01T07:51:04;5.70;47.90
43995;DHT22;51687;52.160;5.298;2023-03-01T07:53:32;5.80;48.00
43995;DHT22;51687;52.160;5.298;2023-03-01T07:56:11;5.80;48.10
43995;DHT22;51687;52.160;5.298;2023-03-01T07:58:40;5.90;48.60
43995;DHT22;51687;52.160;5.298;2023-03-01T08:01:10;6.00;48.50
43995;DHT22;51687;52.160;5.298;2023-03-01T08:03:37;6.10;48.30
43995;DHT22;51687;52.160;5.298;2023-03-01T08:06:06;6.20;48.20
43995;DHT22;51687;52.160;5.298;2023-03-01T08:08:34;6.30;48.10
43995;DHT22;51687;52.160;5.298;2023-03-01T08:11:04;6.50;48.20
43995;DHT22;51687;52.160;5.298;2023-03-01T08:13:31;6.70;48.10
43995;DHT22;51687;52.160;5.298;2023-03-01T08:16:12;7.00;48.70
43995;DHT22;51687;52.160;5.298;2023-03-01T08:18:40;7.30;47.80
43995;DHT22;51687;52.160;5.298;2023-03-01T08:21:15;7.60;47.90
43995;DHT22;51687;52.160;5.298;2023-03-01T08:23:42;7.80;47.70
43995;DHT22;51687;52.160;5.298;2023-03-01T08:26:18;8.00;47.70
43995;DHT22;51687;52.160;5.298;2023-03-01T08:28:46;8.20;47.60
43995;DHT22;51687;52.160;5.298;2023-03-01T08:31:22;8.40;47.70
43995;DHT22;51687;52.160;5.298;2023-03-01T08:33:51;8.70;48.10
43995;DHT22;51687;52.160;5.298;2023-03-01T08:36:36;8.90;47.10
43995;DHT22;51687;52.160;5.298;2023-03-01T08:39:04;9.00;46.40
43995;DHT22;51687;52.160;5.298;2023-03-01T08:41:31;9.10;46.50
43995;DHT22;51687;52.160;5.298;2023-03-01T08:43:58;9.30;48.00
43995;DHT22;51687;52.160;5.298;2023-03-01T08:46:31;9.50;46.20
43995;DHT22;51687;52.160;5.298;2023-03-01T08:48:59;9.60;45.50
43995;DHT22;51687;52.160;5.298;2023-03-01T08:51:26;9.60;45.20
43995;DHT22;51687;52.160;5.298;2023-03-01T08:53:53;9.60;45.20
43995;DHT22;51687;52.160;5.298;2023-03-01T08:56:20;9.70;45.70
43995;DHT22;51687;52.160;5.298;2023-03-01T08:58:48;9.90;45.80
43995;DHT22;51687;52.160;5.298;2023-03-01T09:01:17;10.00;46.10
43995;DHT22;51687;52.160;5.298;2023-03-01T09:03:45;10.30;44.60
43995;DHT22;51687;52.160;5.298;2023-03-01T09:06:13;10.40;44.30
43995;DHT22;51687;52.160;5.298;2023-03-01T09:08:42;10.50;44.10
43995;DHT22;51687;52.160;5.298;2023-03-01T09:11:11;10.60;43.40
43995;DHT22;51687;52.160;5.298;2023-03-01T09:16:11;10.70;45.90
43995;DHT22;51687;52.160;5.298;2023-03-01T09:18:38;10.90;43.50
43995;DHT22;51687;52.160;5.298;2023-03-01T09:21:07;11.10;43.40
43995;DHT22;51687;52.160;5.298;2023-03-01T09:23:40;11.10;43.00
43995;DHT22;51687;52.160;5.298;2023-03-01T09:26:13;11.20;42.20
43995;DHT22;51687;52.160;5.298;2023-03-01T09:28:43;11.20;41.90
43995;DHT22;51687;52.160;5.298;2023-03-01T09:31:11;11.30;42.50
43995;DHT22;51687;52.160;5.298;2023-03-01T09:33:42;11.40;43.30
43995;DHT22;51687;52.160;5.298;2023-03-01T09:36:16;11.50;42.30
43995;DHT22;51687;52.160;5.298;2023-03-01T09:44:29;11.70;41.70
43995;DHT22;51687;52.160;5.298;2023-03-01T09:46:59;11.70;41.80
43995;DHT22;51687;52.160;5.298;2023-03-01T09:49:33;11.80;42.10
43995;DHT22;51687;52.160;5.298;2023-03-01T09:52:12;11.80;41.50
43995;DHT22;51687;52.160;5.298;2023-03-01T09:54:41;11.80;41.90
43995;DHT22;51687;52.160;5.298;2023-03-01T09:57:36;11.90;42.90
43995;DHT22;51687;52.160;5.298;2023-03-01T10:10:46;12.20;41.50
43995;DHT22;51687;52.160;5.298;2023-03-01T10:13:19;12.20;41.10
43995;DHT22;51687;52.160;5.298;2023-03-01T10:15:51;12.20;41.40
43995;DHT22;51687;52.160;5.298;2023-03-01T10:36:25;12.30;42.00
43995;DHT22;51687;52.160;5.298;2023-03-01T10:41:22;12.60;48.20
43995;DHT22;51687;52.160;5.298;2023-03-01T10:43:54;12.80;42.60
43995;DHT22;51687;52.160;5.298;2023-03-01T10:46:30;12.80;40.90
43995;DHT22;51687;52.160;5.298;2023-03-01T10:49:07;12.90;40.20
43995;DHT22;51687;52.160;5.298;2023-03-01T11:05:02;13.00;40.10
43995;DHT22;51687;52.160;5.298;2023-03-01T11:07:29;13.40;39.20
43995;DHT22;51687;52.160;5.298;2023-03-01T11:09:56;13.50;38.90
43995;DHT22;51687;52.160;5.298;2023-03-01T11:12:24;13.60;39.10
43995;DHT22;51687;52.160;5.298;2023-03-01T11:14:53;13.60;36.90
43995;DHT22;51687;52.160;5.298;2023-03-01T11:17:25;13.70;37.90
43995;DHT22;51687;52.160;5.298;2023-03-01T11:20:27;13.70;36.60
43995;DHT22;51687;52.160;5.298;2023-03-01T11:23:05;13.80;39.20
43995;DHT22;51687;52.160;5.298;2023-03-01T11:25:37;13.90;35.90
43995;DHT22;51687;52.160;5.298;2023-03-01T11:28:06;13.90;36.70
43995;DHT22;51687;52.160;5.298;2023-03-01T11:30:38;13.90;38.50
43995;DHT22;51687;52.160;5.298;2023-03-01T11:36:34;14.10;38.50
43995;DHT22;51687;52.160;5.298;2023-03-01T11:39:27;14.20;38.60
43995;DHT22;51687;52.160;5.298;2023-03-01T11:42:00;14.20;36.40
43995;DHT22;51687;52.160;5.298;2023-03-01T11:44:47;14.30;36.30
43995;DHT22;51687;52.160;5.298;2023-03-01T11:53:19;14.40;34.80
43995;DHT22;51687;52.160;5.298;2023-03-01T11:58:38;14.50;34.30
43995;DHT22;51687;52.160;5.298;2023-03-01T12:07:20;14.70;35.40
43995;DHT22;51687;52.160;5.298;2023-03-01T12:10:22;14.70;33.20
43995;DHT22;51687;52.160;5.298;2023-03-01T12:13:18;14.70;34.20
43995;DHT22;51687;52.160;5.298;2023-03-01T12:18:57;14.80;35.30
43995;DHT22;51687;52.160;5.298;2023-03-01T12:21:30;14.90;38.20
43995;DHT22;51687;52.160;5.298;2023-03-01T12:27:12;15.00;37.70
43995;DHT22;51687;52.160;5.298;2023-03-01T12:32:53;15.10;36.50
43995;DHT22;51687;52.160;5.298;2023-03-01T12:41:01;15.40;34.50
43995;DHT22;51687;52.160;5.298;2023-03-01T12:44:01;15.50;34.80
43995;DHT22;51687;52.160;5.298;2023-03-01T12:49:50;15.80;34.20
43995;DHT22;51687;52.160;5.298;2023-03-01T12:52:41;15.80;33.80
43995;DHT22;51687;52.160;5.298;2023-03-01T13:42:49;17.40;30.00
43995;DHT22;51687;52.160;5.298;2023-03-01T13:45:40;17.40;30.00
43995;DHT22;51687;52.160;5.298;2023-03-01T13:48:27;17.50;29.30
43995;DHT22;51687;52.160;5.298;2023-03-01T13:51:03;17.50;34.40
43995;DHT22;51687;52.160;5.298;2023-03-01T13:53:34;17.60;30.00
43995;DHT22;51687;52.160;5.298;2023-03-01T14:01:30;17.60;30.20
43995;DHT22;51687;52.160;5.298;2023-03-01T14:03:58;17.80;32.40
43995;DHT22;51687;52.160;5.298;2023-03-01T14:06:31;17.80;31.60
43995;DHT22;51687;52.160;5.298;2023-03-01T14:09:17;17.80;29.60
43995;DHT22;51687;52.160;5.298;2023-03-01T14:11:52;17.80;30.70
43995;DHT22;51687;52.160;5.298;2023-03-01T14:47:27;17.90;29.60
43995;DHT22;51687;52.160;5.298;2023-03-01T14:50:04;18.20;29.20
43995;DHT22;51687;52.160;5.298;2023-03-01T14:52:35;18.20;28.30
43995;DHT22;51687;52.160;5.298;2023-03-01T14:55:17;18.20;28.50
43995;DHT22;51687;52.160;5.298;2023-03-01T14:57:47;18.30;29.50
43995;DHT22;51687;52.160;5.298;2023-03-01T15:00:19;18.30;29.00
43995;DHT22;51687;52.160;5.298;2023-03-01T15:02:48;18.30;29.00
43995;DHT22;51687;52.160;5.298;2023-03-01T15:05:34;18.30;29.00
43995;DHT22;51687;52.160;5.298;2023-03-01T15:08:03;18.40;30.50
43995;DHT22;51687;52.160;5.298;2023-03-01T15:10:34;18.40;30.00
43995;DHT22;51687;52.160;5.298;2023-03-01T15:13:33;18.40;29.70
43995;DHT22;51687;52.160;5.298;2023-03-01T15:16:07;18.40;38.70
43995;DHT22;51687;52.160;5.298;2023-03-01T15:18:36;18.50;29.50
43995;DHT22;51687;52.160;5.298;2023-03-01T15:21:29;18.50;29.70
43995;DHT22;51687;52.160;5.298;2023-03-01T15:26:32;18.50;34.30
43995;DHT22;51687;52.160;5.298;2023-03-01T15:29:01;18.60;28.50
43995;DHT22;51687;52.160;5.298;2023-03-01T15:31:32;18.60;29.50
43995;DHT22;51687;52.160;5.298;2023-03-01T15:34:38;18.60;27.40
43995;DHT22;51687;52.160;5.298;2023-03-01T15:37:33;18.60;35.80
43995;DHT22;51687;52.160;5.298;2023-03-01T15:39:55;18.60;29.90
43995;DHT22;51687;52.160;5.298;2023-03-01T15:47:48;18.70;30.60
43995;DHT22;51687;52.160;5.298;2023-03-01T15:50:36;18.70;28.00
43995;DHT22;51687;52.160;5.298;2023-03-01T15:53:10;18.70;36.80
43995;DHT22;51687;52.160;5.298;2023-03-01T15:55:38;18.80;29.50
43995;DHT22;51687;52.160;5.298;2023-03-01T15:58:15;18.90;29.10
43995;DHT22;51687;52.160;5.298;2023-03-01T16:00:43;18.90;28.90
43995;DHT22;51687;52.160;5.298;2023-03-01T16:03:26;18.80;28.30
43995;DHT22;51687;52.160;5.298;2023-03-01T16:05:54;18.80;27.60
43995;DHT22;51687;52.160;5.298;2023-03-01T16:08:20;18.80;27.90
43995;DHT22;51687;52.160;5.298;2023-03-01T16:10:48;18.90;28.30
43995;DHT22;51687;52.160;5.298;2023-03-01T16:13:16;18.80;27.50
43995;DHT22;51687;52.160;5.298;2023-03-01T16:15:44;18.90;28.60
43995;DHT22;51687;52.160;5.298;2023-03-01T16:18:11;18.90;28.10
43995;DHT22;51687;52.160;5.298;2023-03-01T16:20:38;18.90;27.30
43995;DHT22;51687;52.160;5.298;2023-03-01T16:23:07;18.80;26.70
43995;DHT22;51687;52.160;5.298;2023-03-01T16:25:35;18.80;27.30
43995;DHT22;51687;52.160;5.298;2023-03-01T16:28:03;18.80;27.20
43995;DHT22;51687;52.160;5.298;2023-03-01T16:30:31;18.80;26.80
43995;DHT22;51687;52.160;5.298;2023-03-01T16:32:59;18.80;27.30
43995;DHT22;51687;52.160;5.298;2023-03-01T16:35:26;18.80;27.10
43995;DHT22;51687;52.160;5.298;2023-03-01T16:37:53;18.80;27.40
43995;DHT22;51687;52.160;5.298;2023-03-01T16:40:23;18.80;27.90
43995;DHT22;51687;52.160;5.298;2023-03-01T16:42:51;18.80;28.30
43995;DHT22;51687;52.160;5.298;2023-03-01T16:45:18;18.70;26.60
43995;DHT22;51687;52.160;5.298;2023-03-01T16:47:51;18.70;26.10
43995;DHT22;51687;52.160;5.298;2023-03-01T16:50:21;18.70;26.80
43995;DHT22;51687;52.160;5.298;2023-03-01T16:52:48;18.70;26.00
43995;DHT22;51687;52.160;5.298;2023-03-01T16:55:15;18.60;26.50
43995;DHT22;51687;52.160;5.298;2023-03-01T16:57:41;18.60;27.00
43995;DHT22;51687;52.160;5.298;2023-03-01T17:00:11;18.60;26.60
43995;DHT22;51687;52.160;5.298;2023-03-01T17:02:40;18.60;25.80
43995;DHT22;51687;52.160;5.298;2023-03-01T17:05:08;18.50;26.00
43995;DHT22;51687;52.160;5.298;2023-03-01T17:07:36;18.50;26.60
43995;DHT22;51687;52.160;5.298;2023-03-01T17:10:05;18.50;30.30
43995;DHT22;51687;52.160;5.298;2023-03-01T17:12:34;18.40;27.10
43995;DHT22;51687;52.160;5.298;2023-03-01T17:15:02;18.40;26.80
43995;DHT22;51687;52.160;5.298;2023-03-01T17:17:30;18.40;26.70
43995;DHT22;51687;52.160;5.298;2023-03-01T17:19:56;18.30;26.30
43995;DHT22;51687;52.160;5.298;2023-03-01T17:22:23;18.30;26.50
43995;DHT22;51687;52.160;5.298;2023-03-01T17:24:50;18.20;26.40
43995;DHT22;51687;52.160;5.298;2023-03-01T17:27:17;18.20;26.60
43995;DHT22;51687;52.160;5.298;2023-03-01T17:29:45;18.20;27.70
43995;DHT22;51687;52.160;5.298;2023-03-01T17:32:14;18.20;32.10
43995;DHT22;51687;52.160;5.298;2023-03-01T17:34:41;18.20;27.50
43995;DHT22;51687;52.160;5.298;2023-03-01T17:37:08;18.20;27.50
43995;DHT22;51687;52.160;5.298;2023-03-01T17:39:35;18.20;27.60
43995;DHT22;51687;52.160;5.298;2023-03-01T17:42:03;18.20;27.60
43995;DHT22;51687;52.160;5.298;2023-03-01T17:44:34;18.20;27.30
43995;DHT22;51687;52.160;5.298;2023-03-01T17:47:02;18.20;26.80
43995;DHT22;51687;52.160;5.298;2023-03-01T17:49:30;18.20;27.20
43995;DHT22;51687;52.160;5.298;2023-03-01T17:51:57;18.20;27.30
43995;DHT22;51687;52.160;5.298;2023-03-01T17:54:24;18.10;26.60
43995;DHT22;51687;52.160;5.298;2023-03-01T17:56:51;18.20;27.90
43995;DHT22;51687;52.160;5.298;2023-03-01T17:59:18;18.10;27.00
43995;DHT22;51687;52.160;5.298;2023-03-01T18:01:46;18.10;26.90
43995;DHT22;51687;52.160;5.298;2023-03-01T18:04:13;18.10;27.10
43995;DHT22;51687;52.160;5.298;2023-03-01T18:06:40;18.00;27.00
43995;DHT22;51687;52.160;5.298;2023-03-01T18:09:08;18.00;26.70
43995;DHT22;51687;52.160;5.298;2023-03-01T18:11:35;17.90;26.70
43995;DHT22;51687;52.160;5.298;2023-03-01T18:14:03;17.90;27.20
43995;DHT22;51687;52.160;5.298;2023-03-01T18:16:30;17.90;27.10
43995;DHT22;51687;52.160;5.298;2023-03-01T18:19:00;17.90;26.90
43995;DHT22;51687;52.160;5.298;2023-03-01T18:21:28;17.80;27.10
43995;DHT22;51687;52.160;5.298;2023-03-01T18:23:56;17.80;27.10
43995;DHT22;51687;52.160;5.298;2023-03-01T18:26:22;17.70;27.20
43995;DHT22;51687;52.160;5.298;2023-03-01T18:28:51;17.70;27.50
43995;DHT22;51687;52.160;5.298;2023-03-01T18:31:20;17.70;27.50
43995;DHT22;51687;52.160;5.298;2023-03-01T18:33:50;17.70;27.80
43995;DHT22;51687;52.160;5.298;2023-03-01T18:36:23;17.60;27.70
43995;DHT22;51687;52.160;5.298;2023-03-01T18:38:51;17.50;27.50
43995;DHT22;51687;52.160;5.298;2023-03-01T18:43:54;17.50;27.70
43995;DHT22;51687;52.160;5.298;2023-03-01T18:46:21;17.40;28.00
43995;DHT22;51687;52.160;5.298;2023-03-01T18:48:50;17.40;28.10
43995;DHT22;51687;52.160;5.298;2023-03-01T18:51:20;17.40;28.00
43995;DHT22;51687;52.160;5.298;2023-03-01T18:53:47;17.30;28.00
43995;DHT22;51687;52.160;5.298;2023-03-01T18:56:14;17.20;28.10
43995;DHT22;51687;52.160;5.298;2023-03-01T18:58:41;17.20;28.30
43995;DHT22;51687;52.160;5.298;2023-03-01T19:01:13;17.20;28.30
43995;DHT22;51687;52.160;5.298;2023-03-01T19:03:40;17.10;28.30
43995;DHT22;51687;52.160;5.298;2023-03-01T19:06:08;17.10;28.10
43995;DHT22;51687;52.160;5.298;2023-03-01T19:08:35;17.00;28.30
43995;DHT22;51687;52.160;5.298;2023-03-01T19:11:04;17.00;28.40
43995;DHT22;51687;52.160;5.298;2023-03-01T19:13:32;16.90;28.30
43995;DHT22;51687;52.160;5.298;2023-03-01T19:18:33;16.90;29.60
43995;DHT22;51687;52.160;5.298;2023-03-01T19:21:02;16.80;28.50
43995;DHT22;51687;52.160;5.298;2023-03-01T19:23:30;16.80;28.50
43995;DHT22;51687;52.160;5.298;2023-03-01T19:26:02;16.70;28.40
43995;DHT22;51687;52.160;5.298;2023-03-01T19:28:29;16.70;28.60
43995;DHT22;51687;52.160;5.298;2023-03-01T19:31:00;16.60;30.20
43995;DHT22;51687;52.160;5.298;2023-03-01T19:33:30;16.60;28.60
43995;DHT22;51687;52.160;5.298;2023-03-01T19:35:57;16.60;28.60
43995;DHT22;51687;52.160;5.298;2023-03-01T19:38:25;16.50;28.60
43995;DHT22;51687;52.160;5.298;2023-03-01T19:40:52;16.50;28.80
43995;DHT22;51687;52.160;5.298;2023-03-01T19:43:21;16.40;28.50
43995;DHT22;51687;52.160;5.298;2023-03-01T19:45:54;16.40;28.40
43995;DHT22;51687;52.160;5.298;2023-03-01T19:48:22;16.40;28.70
43995;DHT22;51687;52.160;5.298;2023-03-01T19:50:50;16.30;28.80
43995;DHT22;51687;52.160;5.298;2023-03-01T19:53:18;16.40;28.60
43995;DHT22;51687;52.160;5.298;2023-03-01T19:55:45;16.30;28.80
43995;DHT22;51687;52.160;5.298;2023-03-01T19:58:12;16.30;28.90
43995;DHT22;51687;52.160;5.298;2023-03-01T20:00:42;16.30;28.90
43995;DHT22;51687;52.160;5.298;2023-03-01T20:03:09;16.20;28.90
43995;DHT22;51687;52.160;5.298;2023-03-01T20:05:37;16.20;29.20
43995;DHT22;51687;52.160;5.298;2023-03-01T20:08:04;16.20;29.10
43995;DHT22;51687;52.160;5.298;2023-03-01T20:10:33;16.20;29.10
43995;DHT22;51687;52.160;5.298;2023-03-01T20:13:00;16.20;29.20
43995;DHT22;51687;52.160;5.298;2023-03-01T20:15:29;16.20;29.40
43995;DHT22;51687;52.160;5.298;2023-03-01T20:17:56;16.20;29.50
43995;DHT22;51687;52.160;5.298;2023-03-01T20:20:23;16.20;29.40
43995;DHT22;51687;52.160;5.298;2023-03-01T20:22:50;16.20;29.50
43995;DHT22;51687;52.160;5.298;2023-03-01T20:25:17;16.20;29.50
43995;DHT22;51687;52.160;5.298;2023-03-01T20:27:43;16.10;29.60
43995;DHT22;51687;52.160;5.298;2023-03-01T20:30:14;16.10;30.10
43995;DHT22;51687;52.160;5.298;2023-03-01T20:32:41;16.10;29.60
43995;DHT22;51687;52.160;5.298;2023-03-01T20:35:09;16.10;30.00
43995;DHT22;51687;52.160;5.298;2023-03-01T20:37:36;16.10;30.10
43995;DHT22;51687;52.160;5.298;2023-03-01T20:40:05;16.10;30.80
43995;DHT22;51687;52.160;5.298;2023-03-01T20:42:32;16.10;30.30
43995;DHT22;51687;52.160;5.298;2023-03-01T20:44:59;16.00;30.00
43995;DHT22;51687;52.160;5.298;2023-03-01T20:47:26;16.00;30.50
43995;DHT22;51687;52.160;5.298;2023-03-01T20:49:52;16.00;30.10
43995;DHT22;51687;52.160;5.298;2023-03-01T20:52:19;15.90;30.10
43995;DHT22;51687;52.160;5.298;2023-03-01T20:54:47;15.90;30.20
43995;DHT22;51687;52.160;5.298;2023-03-01T20:57:14;15.90;30.40
43995;DHT22;51687;52.160;5.298;2023-03-01T20:59:40;15.90;30.40
43995;DHT22;51687;52.160;5.298;2023-03-01T21:02:09;15.90;30.50
43995;DHT22;51687;52.160;5.298;2023-03-01T21:04:36;15.90;30.30
43995;DHT22;51687;52.160;5.298;2023-03-01T21:07:02;15.90;34.60
43995;DHT22;51687;52.160;5.298;2023-03-01T21:09:29;15.90;31.00
43995;DHT22;51687;52.160;5.298;2023-03-01T21:11:56;15.80;30.80
43995;DHT22;51687;52.160;5.298;2023-03-01T21:14:23;15.80;30.80
43995;DHT22;51687;52.160;5.298;2023-03-01T21:16:50;15.80;30.80
43995;DHT22;51687;52.160;5.298;2023-03-01T21:19:16;15.80;30.60
43995;DHT22;51687;52.160;5.298;2023-03-01T21:21:43;15.80;30.80
43995;DHT22;51687;52.160;5.298;2023-03-01T21:24:10;15.80;30.80
43995;DHT22;51687;52.160;5.298;2023-03-01T21:26:37;15.80;30.70
43995;DHT22;51687;52.160;5.298;2023-03-01T21:29:04;15.70;30.70
43995;DHT22;51687;52.160;5.298;2023-03-01T21:31:33;15.70;30.90
43995;DHT22;51687;52.160;5.298;2023-03-01T21:34:05;15.70;30.70
43995;DHT22;51687;52.160;5.298;2023-03-01T21:36:32;15.60;30.70
43995;DHT22;51687;52.160;5.298;2023-03-01T21:39:00;15.60;31.00
43995;DHT22;51687;52.160;5.298;2023-03-01T21:41:32;15.60;31.20
43995;DHT22;51687;52.160;5.298;2023-03-01T21:44:00;15.60;31.10
43995;DHT22;51687;52.160;5.298;2023-03-01T21:46:30;15.60;31.20
43995;DHT22;51687;52.160;5.298;2023-03-01T21:48:58;15.60;31.20
43995;DHT22;51687;52.160;5.298;2023-03-01T21:51:26;15.60;31.50
43995;DHT22;51687;52.160;5.298;2023-03-01T21:53:54;15.50;31.10
43995;DHT22;51687;52.160;5.298;2023-03-01T21:56:26;15.50;31.40
43995;DHT22;51687;52.160;5.298;2023-03-01T21:58:53;15.50;31.30
43995;DHT22;51687;52.160;5.298;2023-03-01T22:01:23;15.50;31.50
43995;DHT22;51687;52.160;5.298;2023-03-01T22:03:51;15.50;31.10
43995;DHT22;51687;52.160;5.298;2023-03-01T22:06:23;15.50;31.40
43995;DHT22;51687;52.160;5.298;2023-03-01T22:09:02;15.50;31.40